createdAt,value
2023-11-27T00:01:40.345Z,2.63
2023-11-27T00:04:06.899Z,2.58
2023-11-27T00:06:33.288Z,2.60
2023-11-27T00:08:59.613Z,2.65
2023-11-27T00:11:25.952Z,2.72
2023-11-27T00:13:52.312Z,2.72
2023-11-27T00:16:18.768Z,3.25
2023-11-27T00:18:47.847Z,2.50
2023-11-27T00:21:14.753Z,2.75
2023-11-27T00:23:41.156Z,3.13
2023-11-27T00:26:08.162Z,2.70
2023-11-27T00:28:34.841Z,3.25
2023-11-27T00:31:01.339Z,3.33
2023-11-27T00:33:27.754Z,3.35
2023-11-27T00:35:54.091Z,3.30
2023-11-27T00:38:20.611Z,2.75
2023-11-27T00:40:47.643Z,2.90
2023-11-27T00:43:14.470Z,2.72
2023-11-27T00:45:40.887Z,2.90
2023-11-27T00:48:07.265Z,2.80
2023-11-27T00:50:33.630Z,3.08
2023-11-27T00:52:59.981Z,2.92
2023-11-27T00:55:26.280Z,2.75
2023-11-27T00:57:52.703Z,3.15
2023-11-27T01:00:19.117Z,3.00
2023-11-27T01:02:46.576Z,3.03
2023-11-27T01:05:15.317Z,2.90
2023-11-27T01:07:42.732Z,3.20
2023-11-27T01:10:09.850Z,3.17
2023-11-27T01:12:46.485Z,3.03
2023-11-27T01:15:14.818Z,3.60
2023-11-27T01:17:41.566Z,3.47
2023-11-27T01:20:11.271Z,2.78
2023-11-27T01:22:41.049Z,3.30
2023-11-27T01:25:07.618Z,2.90
2023-11-27T01:27:34.510Z,2.80
2023-11-27T01:30:07.870Z,3.67
2023-11-27T01:32:34.404Z,2.92
2023-11-27T01:35:00.968Z,3.30
2023-11-27T01:37:27.332Z,2.90
2023-11-27T01:39:53.713Z,3.03
2023-11-27T01:42:20.020Z,2.60
2023-11-27T01:44:46.374Z,2.92
2023-11-27T01:47:12.886Z,3.20
2023-11-27T01:49:43.101Z,2.58
2023-11-27T01:52:10.424Z,2.90
2023-11-27T01:54:39.343Z,2.85
2023-11-27T01:57:07.859Z,3.25
2023-11-27T01:59:34.377Z,3.28
2023-11-27T02:02:01.520Z,3.33
2023-11-27T02:04:28.543Z,3.10
2023-11-27T02:06:54.972Z,2.65
2023-11-27T02:09:21.816Z,2.83
2023-11-27T02:11:48.490Z,2.65
2023-11-27T02:14:16.782Z,2.80
2023-11-27T02:16:46.928Z,3.15
2023-11-27T02:19:14.695Z,3.20
2023-11-27T02:21:41.742Z,3.20
2023-11-27T02:24:08.338Z,2.67
2023-11-27T02:26:34.733Z,2.45
2023-11-27T02:29:01.183Z,2.60
2023-11-27T02:31:27.678Z,2.70
2023-11-27T02:33:54.213Z,3.25
2023-11-27T02:36:21.652Z,2.58
2023-11-27T02:38:48.079Z,2.92
2023-11-27T02:41:14.395Z,2.67
2023-11-27T02:43:40.740Z,2.95
2023-11-27T02:46:07.226Z,2.20
2023-11-27T02:48:33.626Z,3.35
2023-11-27T02:51:00.059Z,2.78
2023-11-27T02:53:26.416Z,2.40
2023-11-27T02:55:53.106Z,2.63
2023-11-27T02:58:19.454Z,2.78
2023-11-27T03:00:46.253Z,2.25
2023-11-27T03:03:12.698Z,2.42
2023-11-27T03:05:39.170Z,2.75
2023-11-27T03:08:05.661Z,2.20
2023-11-27T03:10:32.102Z,2.10
2023-11-27T03:12:58.655Z,2.10
2023-11-27T03:15:25.020Z,2.35
2023-11-27T03:17:51.410Z,2.80
2023-11-27T03:20:18.637Z,2.67
2023-11-27T03:22:45.026Z,2.80
2023-11-27T03:25:11.565Z,1.92
2023-11-27T03:27:38.981Z,2.00
2023-11-27T03:30:07.152Z,2.60
2023-11-27T03:32:33.788Z,2.00
2023-11-27T03:35:00.249Z,1.98
2023-11-27T03:37:26.699Z,1.75
2023-11-27T03:39:53.186Z,2.63
2023-11-27T03:42:19.483Z,2.10
2023-11-27T03:44:45.796Z,2.10
2023-11-27T03:47:12.131Z,1.92
2023-11-27T03:49:38.924Z,2.00
2023-11-27T03:52:05.298Z,2.30
2023-11-27T03:54:31.840Z,2.03
2023-11-27T03:56:58.198Z,2.00
2023-11-27T03:59:24.908Z,2.10
2023-11-27T04:01:51.625Z,1.88
2023-11-27T04:04:18.160Z,2.00
2023-11-27T04:06:46.508Z,1.85
2023-11-27T04:09:14.464Z,1.88
2023-11-27T04:11:41.385Z,1.95
2023-11-27T04:14:08.129Z,1.80
2023-11-27T04:16:34.558Z,2.05
2023-11-27T04:19:01.032Z,1.55
2023-11-27T04:21:27.427Z,2.20
2023-11-27T04:23:53.796Z,1.90
2023-11-27T04:26:23.124Z,1.75
2023-11-27T04:28:50.843Z,1.60
2023-11-27T04:31:17.382Z,2.28
2023-11-27T04:33:43.837Z,1.90
2023-11-27T04:36:10.525Z,1.70
2023-11-27T04:38:37.402Z,1.70
2023-11-27T04:41:03.760Z,1.90
2023-11-27T04:43:30.237Z,1.80
2023-11-27T04:45:56.744Z,1.70
2023-11-27T04:48:23.397Z,1.90
2023-11-27T04:50:49.918Z,1.70
2023-11-27T04:53:16.303Z,1.88
2023-11-27T04:55:42.665Z,1.80
2023-11-27T04:58:11.552Z,2.47
2023-11-27T05:00:37.938Z,1.92
2023-11-27T05:03:04.526Z,2.00
2023-11-27T05:05:30.843Z,1.70
2023-11-27T05:07:57.151Z,1.67
2023-11-27T05:10:23.614Z,1.73
2023-11-27T05:12:49.985Z,1.67
2023-11-27T05:15:16.381Z,1.95
2023-11-27T05:17:42.825Z,1.73
2023-11-27T05:20:10.514Z,1.45
2023-11-27T05:22:37.626Z,1.67
2023-11-27T05:25:04.851Z,1.48
2023-11-27T05:27:31.336Z,1.23
2023-11-27T05:29:57.761Z,1.42
2023-11-27T05:32:24.137Z,1.60
2023-11-27T05:34:50.458Z,1.40
2023-11-27T05:37:16.818Z,1.55
2023-11-27T05:39:43.436Z,1.38
2023-11-27T05:42:13.128Z,1.48
2023-11-27T05:44:40.008Z,1.60
2023-11-27T05:47:06.510Z,1.50
2023-11-27T05:49:32.979Z,1.58
2023-11-27T05:51:59.458Z,1.63
2023-11-27T05:54:25.801Z,1.40
2023-11-27T05:56:52.092Z,1.10
2023-11-27T05:59:18.568Z,1.63
2023-11-27T06:01:44.854Z,1.30
2023-11-27T06:04:11.760Z,1.40
2023-11-27T06:06:38.133Z,1.42
2023-11-27T06:09:04.486Z,1.48
2023-11-27T06:11:32.043Z,1.20
2023-11-27T06:13:59.630Z,1.60
2023-11-27T06:16:26.739Z,1.80
2023-11-27T06:18:53.723Z,1.33
2023-11-27T06:21:20.311Z,1.20
2023-11-27T06:23:46.697Z,1.20
2023-11-27T06:26:16.584Z,1.27
2023-11-27T06:28:42.896Z,1.25
2023-11-27T06:31:09.416Z,1.50
2023-11-27T06:33:35.873Z,1.25
2023-11-27T06:36:02.279Z,1.75
2023-11-27T06:38:28.804Z,1.95
2023-11-27T06:40:55.135Z,1.40
2023-11-27T06:43:21.508Z,1.90
2023-11-27T06:45:48.722Z,1.77
2023-11-27T06:48:15.206Z,1.60
2023-11-27T06:50:41.577Z,2.38
2023-11-27T06:53:07.930Z,1.33
2023-11-27T06:55:35.101Z,1.20
2023-11-27T06:58:04.762Z,1.40
2023-11-27T07:00:32.858Z,1.38
2023-11-27T07:02:59.271Z,1.00
2023-11-27T07:05:25.635Z,1.60
2023-11-27T07:07:52.145Z,1.40
2023-11-27T07:10:18.537Z,1.27
2023-11-27T07:12:45.007Z,1.10
2023-11-27T07:15:11.803Z,1.35
2023-11-27T07:17:39.512Z,1.38
2023-11-27T07:20:06.848Z,1.90
2023-11-27T07:22:33.306Z,1.60
2023-11-27T07:24:59.775Z,1.20
2023-11-27T07:27:28.043Z,1.45
2023-11-27T07:29:54.908Z,1.23
2023-11-27T07:32:21.714Z,1.40
2023-11-27T07:34:48.143Z,1.42
2023-11-27T07:37:14.597Z,1.40
2023-11-27T07:39:41.074Z,1.08
2023-11-27T07:42:07.911Z,1.40
2023-11-27T07:44:34.230Z,1.25
2023-11-27T07:47:00.709Z,1.67
2023-11-27T07:49:27.109Z,1.20
2023-11-27T07:51:59.002Z,1.25
2023-11-27T07:54:25.762Z,1.15
2023-11-27T07:56:52.782Z,1.10
2023-11-27T07:59:19.641Z,1.00
2023-11-27T08:01:47.479Z,0.90
2023-11-27T08:04:14.045Z,1.35
2023-11-27T08:06:40.441Z,1.30
2023-11-27T08:09:08.545Z,1.40
2023-11-27T08:11:37.579Z,1.40
2023-11-27T08:14:03.876Z,1.00
2023-11-27T08:16:30.515Z,1.52
2023-11-27T08:18:58.026Z,0.93
2023-11-27T08:21:26.131Z,1.20
2023-11-27T08:23:52.893Z,1.23
2023-11-27T08:26:20.354Z,1.30
2023-11-27T08:28:47.096Z,1.35
2023-11-27T08:31:18.149Z,1.30
2023-11-27T08:33:44.581Z,1.00
2023-11-27T08:36:12.355Z,1.40
2023-11-27T08:38:38.750Z,1.20
2023-11-27T08:41:05.536Z,1.25
2023-11-27T08:43:32.006Z,1.17
2023-11-27T08:45:58.813Z,1.23
2023-11-27T08:48:26.412Z,1.30
2023-11-27T08:50:52.819Z,1.20
2023-11-27T08:53:20.420Z,1.50
2023-11-27T08:55:46.905Z,1.33
2023-11-27T08:58:13.264Z,1.30
2023-11-27T09:00:39.930Z,1.00
2023-11-27T09:03:06.879Z,0.80
2023-11-27T09:05:34.703Z,1.05
2023-11-27T09:08:06.187Z,0.90
2023-11-27T09:10:33.654Z,1.00
2023-11-27T09:13:00.273Z,1.00
2023-11-27T09:15:26.705Z,0.77
2023-11-27T09:17:53.273Z,1.02
2023-11-27T09:20:19.717Z,0.90
2023-11-27T09:22:46.124Z,1.20
2023-11-27T09:25:14.432Z,1.27
2023-11-27T09:27:41.158Z,1.10
2023-11-27T09:30:10.845Z,1.00
2023-11-27T09:32:40.485Z,1.10
2023-11-27T09:35:16.487Z,1.00
2023-11-27T09:37:43.434Z,0.88
2023-11-27T09:40:11.645Z,1.00
2023-11-27T09:42:46.279Z,0.80
2023-11-27T09:45:17.309Z,1.10
2023-11-27T09:47:46.825Z,1.10
2023-11-27T09:50:14.221Z,1.10
2023-11-27T09:53:06.239Z,1.35
2023-11-27T09:55:35.701Z,0.90
2023-11-27T09:58:03.347Z,0.90
2023-11-27T10:00:31.172Z,0.60
2023-11-27T10:02:58.526Z,1.05
2023-11-27T10:05:27.949Z,0.80
2023-11-27T10:07:55.486Z,0.90
2023-11-27T10:10:28.783Z,0.90
2023-11-27T10:12:58.700Z,0.93
2023-11-27T10:15:27.722Z,0.90
2023-11-27T10:17:54.859Z,0.70
2023-11-27T10:20:23.088Z,0.98
2023-11-27T10:22:49.447Z,1.00
2023-11-27T10:25:16.158Z,0.70
2023-11-27T10:27:43.510Z,0.90
2023-11-27T10:30:25.894Z,0.70
2023-11-27T10:32:55.703Z,0.70
2023-11-27T10:35:25.684Z,0.73
2023-11-27T10:37:55.273Z,0.98
2023-11-27T10:40:22.204Z,0.70
2023-11-27T10:42:49.880Z,0.80
2023-11-27T10:45:17.148Z,0.60
2023-11-27T10:47:54.380Z,0.65
2023-11-27T10:50:24.841Z,0.80
2023-11-27T10:52:51.810Z,0.73
2023-11-27T10:55:19.140Z,0.90
2023-11-27T10:57:46.778Z,0.60
2023-11-27T11:00:28.689Z,0.70
2023-11-27T11:02:57.928Z,0.90
2023-11-27T11:05:33.308Z,0.70
2023-11-27T11:08:00.449Z,0.88
2023-11-27T11:10:32.449Z,0.60
2023-11-27T11:13:01.782Z,0.75
2023-11-27T11:15:51.645Z,0.75
2023-11-27T11:18:26.007Z,0.65
2023-11-27T11:21:07.025Z,0.70
2023-11-27T11:23:40.769Z,0.95
2023-11-27T11:26:34.286Z,0.73
2023-11-27T11:29:37.467Z,0.80
2023-11-27T11:32:06.026Z,0.63
2023-11-27T11:34:37.202Z,0.70
2023-11-27T11:37:07.336Z,0.80
2023-11-27T11:39:42.439Z,0.70
2023-11-27T11:42:14.907Z,0.68
2023-11-27T11:44:42.653Z,0.95
2023-11-27T11:47:28.542Z,0.60
2023-11-27T11:50:13.905Z,0.73
2023-11-27T11:52:43.192Z,0.82
2023-11-27T11:55:22.407Z,0.65
2023-11-27T11:57:49.686Z,0.70
2023-11-27T12:00:20.877Z,1.00
2023-11-27T12:02:47.610Z,0.60
2023-11-27T12:05:14.274Z,0.75
2023-11-27T12:07:40.770Z,0.80
2023-11-27T12:10:07.820Z,0.85
2023-11-27T12:12:34.224Z,0.52
2023-11-27T12:15:06.829Z,0.70
2023-11-27T12:17:33.296Z,0.60
2023-11-27T12:20:00.612Z,0.63
2023-11-27T12:22:30.693Z,0.70
2023-11-27T12:24:57.035Z,0.70
2023-11-27T12:27:23.819Z,0.60
2023-11-27T12:29:50.991Z,0.50
2023-11-27T12:32:21.140Z,0.63
2023-11-27T12:34:49.025Z,0.60
2023-11-27T12:37:15.764Z,0.70
2023-11-27T12:39:42.092Z,0.50
2023-11-27T12:42:14.968Z,0.50
2023-11-27T12:44:47.806Z,0.63
2023-11-27T12:47:19.921Z,0.43
2023-11-27T12:49:52.694Z,0.60
2023-11-27T12:52:19.235Z,0.50
2023-11-27T12:54:50.462Z,0.47
2023-11-27T12:57:17.401Z,0.60
2023-11-27T12:59:47.710Z,0.50
2023-11-27T13:02:18.392Z,0.50
2023-11-27T13:04:44.849Z,0.52
2023-11-27T13:07:13.465Z,0.40
2023-11-27T13:09:39.868Z,0.50
2023-11-27T13:12:17.115Z,0.70
2023-11-27T13:17:19.455Z,0.60
2023-11-27T13:19:50.451Z,0.40
2023-11-27T13:22:17.425Z,0.40
2023-11-27T13:24:44.609Z,0.50
2023-11-27T13:27:17.173Z,0.60
2023-11-27T13:29:45.170Z,0.30
2023-11-27T13:32:14.955Z,0.60
2023-11-27T13:34:56.763Z,0.50
2023-11-27T13:37:29.221Z,0.40
2023-11-27T13:39:59.977Z,0.52
2023-11-27T13:42:26.699Z,0.50
2023-11-27T13:44:53.446Z,0.80
2023-11-27T13:47:22.658Z,0.45
2023-11-27T13:49:50.023Z,0.50
2023-11-27T13:52:18.418Z,0.73
2023-11-27T13:54:49.955Z,0.50
2023-11-27T13:57:28.288Z,0.60
2023-11-27T13:59:57.829Z,0.50
2023-11-27T14:02:28.764Z,0.90
2023-11-27T14:04:56.224Z,0.50
2023-11-27T14:07:25.396Z,0.52
2023-11-27T14:09:55.860Z,0.43
2023-11-27T14:12:30.081Z,0.45
2023-11-27T14:15:15.481Z,0.40
2023-11-27T14:17:44.796Z,0.50
2023-11-27T14:20:30.283Z,0.57
2023-11-27T14:22:56.947Z,0.52
2023-11-27T14:25:42.114Z,0.70
2023-11-27T14:28:31.534Z,0.50
2023-11-27T14:33:25.501Z,0.60
2023-11-27T14:35:56.103Z,0.75
2023-11-27T14:38:26.468Z,0.82
2023-11-27T14:40:52.921Z,0.57
2023-11-27T14:43:21.325Z,0.38
2023-11-27T14:45:50.035Z,0.40
2023-11-27T14:48:16.918Z,0.65
2023-11-27T14:50:43.669Z,0.50
2023-11-27T14:53:10.922Z,0.40
2023-11-27T14:55:38.659Z,0.70
2023-11-27T14:58:05.934Z,0.60
2023-11-27T15:00:34.223Z,0.50
2023-11-27T15:03:00.966Z,0.80
2023-11-27T15:05:31.256Z,0.35
2023-11-27T15:07:59.700Z,0.50
2023-11-27T15:10:26.663Z,0.60
2023-11-27T15:12:55.748Z,0.60
2023-11-27T15:15:22.075Z,0.43
2023-11-27T15:17:48.985Z,0.73
2023-11-27T15:20:16.594Z,0.32
2023-11-27T15:22:42.985Z,0.40
2023-11-27T15:25:10.667Z,0.30
2023-11-27T15:27:39.394Z,0.90
2023-11-27T15:30:10.064Z,0.40
2023-11-27T15:32:40.038Z,0.55
2023-11-27T15:35:06.893Z,0.57
2023-11-27T15:37:33.596Z,0.52
2023-11-27T15:39:59.970Z,0.70
2023-11-27T15:42:28.339Z,0.50
2023-11-27T15:44:55.455Z,0.52
2023-11-27T15:47:22.149Z,0.50
2023-11-27T15:49:48.539Z,0.57
2023-11-27T15:52:15.173Z,0.50
2023-11-27T15:54:42.115Z,0.50
2023-11-27T15:57:09.604Z,0.50
2023-11-27T15:59:39.916Z,0.52
2023-11-27T16:02:06.854Z,1.15
2023-11-27T16:04:33.300Z,0.60
2023-11-27T16:06:59.660Z,0.63
2023-11-27T16:09:26.324Z,0.50
2023-11-27T16:11:53.321Z,0.70
2023-11-27T16:14:20.332Z,0.43
2023-11-27T16:16:46.895Z,0.50
2023-11-27T16:19:14.434Z,0.47
2023-11-27T16:21:40.982Z,1.30
2023-11-27T16:24:07.441Z,0.50
2023-11-27T16:26:34.374Z,0.70
2023-11-27T16:29:01.487Z,0.50
2023-11-27T16:31:27.871Z,0.40
2023-11-27T16:33:54.265Z,0.50
2023-11-27T16:36:20.663Z,0.90
2023-11-27T16:38:47.115Z,0.95
2023-11-27T16:41:13.528Z,0.60
2023-11-27T16:43:40.920Z,0.68
2023-11-27T16:46:09.565Z,0.40
2023-11-27T16:48:36.824Z,0.70
2023-11-27T16:51:04.019Z,0.47
2023-11-27T16:53:30.586Z,0.80
2023-11-27T16:55:57.048Z,0.90
2023-11-27T16:58:23.547Z,1.05
2023-11-27T17:00:50.342Z,0.50
2023-11-27T17:03:17.238Z,0.75
2023-11-27T17:05:44.008Z,0.77
2023-11-27T17:08:17.270Z,0.77
2023-11-27T17:10:44.748Z,0.88
2023-11-27T17:13:12.270Z,0.80
2023-11-27T17:15:43.851Z,0.60
2023-11-27T17:18:11.177Z,0.57
2023-11-27T17:20:38.450Z,0.60
2023-11-27T17:23:07.367Z,0.57
2023-11-27T17:25:37.528Z,1.05
2023-11-27T17:28:06.694Z,0.70
2023-11-27T17:30:34.422Z,0.50
2023-11-27T17:33:00.765Z,0.98
2023-11-27T17:35:27.189Z,0.75
2023-11-27T17:37:53.577Z,0.70
2023-11-27T17:40:20.522Z,0.70
2023-11-27T17:42:48.228Z,0.60
2023-11-27T17:45:15.251Z,0.68
2023-11-27T17:47:45.941Z,0.60
2023-11-27T17:50:14.374Z,0.65
2023-11-27T17:52:44.300Z,1.20
2023-11-27T17:55:11.758Z,0.88
2023-11-27T17:57:38.779Z,0.80
2023-11-27T18:00:08.815Z,0.65
2023-11-27T18:02:37.916Z,0.73
2023-11-27T18:05:06.981Z,0.55
2023-11-27T18:07:33.568Z,0.80
2023-11-27T18:09:59.915Z,0.70
2023-11-27T18:12:26.205Z,0.70
2023-11-27T18:14:52.539Z,0.80
2023-11-27T18:17:19.467Z,1.02
2023-11-27T18:19:46.147Z,0.98
2023-11-27T18:22:13.469Z,1.20
2023-11-27T18:24:39.867Z,0.80
2023-11-27T18:27:06.242Z,0.90
2023-11-27T18:29:32.595Z,0.70
2023-11-27T18:31:58.968Z,0.95
2023-11-27T18:34:25.975Z,1.13
2023-11-27T18:36:52.304Z,1.10
2023-11-27T18:39:21.230Z,1.20
2023-11-27T18:41:47.584Z,1.25
2023-11-27T18:44:15.073Z,1.10
2023-11-27T18:46:45.193Z,0.90
2023-11-27T18:49:11.543Z,1.00
2023-11-27T18:51:38.636Z,0.80
2023-11-27T18:54:05.046Z,0.70
2023-11-27T18:56:31.888Z,1.00
2023-11-27T18:58:58.956Z,1.00
2023-11-27T19:01:25.491Z,0.60
2023-11-27T19:03:53.949Z,0.70
2023-11-27T19:06:20.624Z,0.70
2023-11-27T19:08:47.450Z,0.80
2023-11-27T19:11:14.096Z,1.02
2023-11-27T19:13:40.509Z,1.20
2023-11-27T19:16:07.083Z,1.15
2023-11-27T19:18:34.314Z,0.88
2023-11-27T19:21:00.628Z,1.05
2023-11-27T19:23:29.144Z,1.35
2023-11-27T19:25:55.583Z,1.10
2023-11-27T19:28:22.510Z,1.20
2023-11-27T19:30:49.232Z,1.30
2023-11-27T19:33:15.701Z,1.13
2023-11-27T19:35:42.091Z,1.20
2023-11-27T19:38:08.437Z,1.48
2023-11-27T19:40:36.680Z,1.25
2023-11-27T19:43:04.883Z,1.45
2023-11-27T19:45:31.373Z,1.70
2023-11-27T19:48:00.369Z,1.67
2023-11-27T19:50:26.782Z,1.70
2023-11-27T19:52:53.581Z,1.45
2023-11-27T19:55:20.064Z,1.27
2023-11-27T19:57:46.605Z,1.80
2023-11-27T20:00:14.732Z,1.55
2023-11-27T20:02:42.512Z,1.55
2023-11-27T20:05:09.493Z,1.58
2023-11-27T20:07:37.021Z,1.95
2023-11-27T20:10:04.323Z,1.60
2023-11-27T20:12:30.726Z,1.83
2023-11-27T20:14:57.055Z,2.20
2023-11-27T20:17:23.524Z,1.98
2023-11-27T20:19:52.182Z,1.63
2023-11-27T20:22:18.730Z,2.10
2023-11-27T20:24:46.075Z,1.35
2023-11-27T20:27:12.888Z,2.28
2023-11-27T20:29:46.089Z,2.15
2023-11-27T20:32:14.293Z,2.00
2023-11-27T20:34:41.466Z,2.20
2023-11-27T20:37:08.898Z,1.83
2023-11-27T20:39:36.537Z,2.17
2023-11-27T20:42:02.948Z,1.80
2023-11-27T20:44:29.330Z,1.70
2023-11-27T20:46:57.081Z,2.10
2023-11-27T20:49:23.534Z,2.70
2023-11-27T20:51:49.935Z,2.00
2023-11-27T20:54:17.545Z,1.80
2023-11-27T20:56:43.876Z,2.20
2023-11-27T20:59:10.202Z,2.00
2023-11-27T21:01:36.643Z,2.25
2023-11-27T21:04:03.179Z,2.00
2023-11-27T21:06:29.463Z,2.25
2023-11-27T21:08:56.078Z,2.10
2023-11-27T21:11:24.811Z,2.00
2023-11-27T21:13:52.379Z,2.65
2023-11-27T21:16:19.256Z,2.22
2023-11-27T21:18:48.612Z,2.30
2023-11-27T21:21:15.351Z,2.00
2023-11-27T21:23:41.657Z,1.98
2023-11-27T21:26:12.793Z,2.20
2023-11-27T21:28:39.797Z,1.90
2023-11-27T21:31:06.295Z,2.20
2023-11-27T21:33:32.648Z,2.20
2023-11-27T21:35:59.444Z,1.80
2023-11-27T21:38:25.841Z,2.40
2023-11-27T21:40:52.246Z,2.15
2023-11-27T21:43:19.033Z,1.90
2023-11-27T21:45:45.502Z,1.83
2023-11-27T21:48:11.891Z,2.08
2023-11-27T21:50:38.240Z,2.30
2023-11-27T21:53:04.591Z,2.22
2023-11-27T21:55:31.116Z,2.15
2023-11-27T21:57:57.500Z,1.80
2023-11-27T22:00:23.954Z,1.75
2023-11-27T22:02:50.408Z,2.15
2023-11-27T22:05:16.962Z,1.80
2023-11-27T22:07:44.240Z,1.75
2023-11-27T22:10:10.966Z,2.00
2023-11-27T22:12:37.441Z,2.00
2023-11-27T22:15:04.147Z,1.90
2023-11-27T22:17:30.446Z,1.75
2023-11-27T22:19:56.786Z,1.80
2023-11-27T22:22:23.509Z,1.60
2023-11-27T22:24:50.331Z,1.58
2023-11-27T22:27:16.673Z,2.10
2023-11-27T22:29:43.579Z,1.50
2023-11-27T22:32:10.007Z,1.92
2023-11-27T22:34:36.576Z,1.88
2023-11-27T22:37:03.144Z,1.70
2023-11-27T22:39:29.471Z,1.60
2023-11-27T22:41:55.899Z,1.80
2023-11-27T22:44:22.258Z,1.80
2023-11-27T22:46:48.663Z,1.90
2023-11-27T22:49:15.159Z,1.80
2023-11-27T22:51:41.561Z,1.90
2023-11-27T22:54:07.892Z,2.00
2023-11-27T22:56:34.222Z,2.00
2023-11-27T22:59:10.933Z,2.13
2023-11-27T23:01:41.453Z,2.08
2023-11-27T23:04:07.988Z,2.28
2023-11-27T23:06:38.062Z,2.00
2023-11-27T23:09:05.319Z,1.90
2023-11-27T23:11:31.684Z,2.63
2023-11-27T23:13:58.115Z,1.75
2023-11-27T23:16:24.572Z,2.03
2023-11-27T23:18:50.918Z,2.30
2023-11-27T23:21:17.297Z,1.90
2023-11-27T23:23:44.018Z,1.90
2023-11-27T23:26:10.360Z,1.88
2023-11-27T23:28:36.837Z,2.00
2023-11-27T23:31:04.688Z,1.83
2023-11-27T23:33:32.251Z,2.08
2023-11-27T23:35:58.737Z,2.03
2023-11-27T23:38:25.106Z,2.40
2023-11-27T23:40:51.475Z,2.00
2023-11-27T23:43:21.044Z,2.00
2023-11-27T23:45:47.438Z,1.95
2023-11-27T23:48:13.898Z,2.47
2023-11-27T23:50:44.036Z,1.92
2023-11-27T23:53:11.374Z,2.30
2023-11-27T23:55:38.787Z,2.50
2023-11-27T23:58:05.331Z,2.35
